Aviation Digital Data Service (ADDS)

Output produced by METARs form (1813 UTC 22 September 2014)
found at http://aviationweather.gov/adds/metars/
 
KDAG 221750Z AUTO 28005KT 10SM CLR 29/07 A3004 RMK AO2 SLP144 T02890067 10289 20194 50004 TSNO
KDAG 221723Z 2218/2318 30007KT P6SM SKC 
     FM222000 05006KT P6SM SKC 
     FM230200 25009KT P6SM SKC
       
KEDW 221758Z VRB03KT 50SM CLR 25/09 A3005 RMK AO2A SLP156 T02540086 10254 20134 50003
TAF KEDW 2210/2316 20009KT 9999 SKC QNH2999INS 
     BECMG 2220/2221 23012KT 9999 SKC QNH2994INS 
     TEMPO 2223/2302 24012G25KT 
     BECMG 2304/2305 22006KT 9999 SKC QNH2999INS TX33/2223Z TN15/2212Z
       
KVCV 221755Z AUTO 00000KT 10SM CLR 27/06 A3008 RMK AO2
KONT 221753Z 21005KT 8SM CLR 26/14 A2999 RMK AO2 SLP142 T02560144 10256 20167 50003
KONT 221728Z 2218/2324 VRB04KT P6SM SKC 
     FM222100 25011KT P6SM SKC 
     FM230400 VRB04KT P6SM SKC 
     FM232100 25011KT P6SM SKC
       
KSNA 221753Z 29004KT 10SM FEW013 SCT045 26/16 A2999 RMK AO2 SLP153 T02560161 10256 20194 51004
KSNA 221728Z 2218/2318 23008KT P6SM FEW012 
     FM230300 VRB04KT P6SM FEW010 
     TEMPO 2311/2315 BKN009
       
KSAN 221751Z 30006KT 10SM FEW018 24/16 A3000 RMK AO2 SLP157 T02390161 10244 20200 50002
KSAN 221728Z 2218/2324 29010KT P6SM SCT018 
     FM230300 VRB04KT P6SM SCT012 
     FM230800 VRB04KT P6SM OVC010 
     FM231600 VRB04KT P6SM SCT010 
     FM231900 29010KT P6SM SCT010
       
KNID 221756Z 00000KT 10SM CLR 28/08 A3005 RMK AO2 SLP154 T02830083 10283 20161 50003 $
TAF KNID 2215/2315 VRB05KT 9999 SKC QNH2998INS 
     BECMG 2218/2220 15012KT 9999 FEW100 QNH2998INS WND 080V200 
     TEMPO 2220/2302 24012G20KT 
     BECMG 2302/2304 VRB05KT 9999 SKC QNH2990INS T34/2223Z T15/2312Z
       
KNXP 221756Z AUTO 00000KT 10SM CLR 30/06 A3010 RMK AO2 SLP155 T03000056 10300 20189 50002
TAF KNXP 2215/2315 VRB05KT 9999 SKC QNH2992INS T34/2223Z T21/2312Z
       
KPSP 221753Z VRB03KT 10SM CLR 34/05 A2994 RMK AO2 SLP133 T03440050 10350 20228 50003
KPSP 221728Z 2218/2318 VRB06KT P6SM SKC 
     FM230100 33010KT P6SM SKC 
     FM230600 VRB05KT P6SM SKC
       
KLAX 221753Z 25007KT 10SM SCT014 22/17 A3000 RMK AO2 SLP157 T02220172 10222 20178 51009
KLAX 221728Z 2218/2324 26006KT P6SM SCT012 
     FM222000 26014KT P6SM SKC 
     FM230300 27008KT P6SM SKC 
     FM230700 VRB03KT P6SM SKC 
     FM230900 VRB03KT 6SM BR OVC008 
     FM231600 VRB03KT P6SM BKN010 
     FM231900 27010KT P6SM FEW015
       
KCNO 221753Z COR 29004KT 7SM CLR 26/15 A3000 RMK AO2 SLP152 T02610150 10261 20139 50002
KSMO 221751Z 23006KT 10SM FEW011 22/17 A3000 RMK AO2 SLP157 T02170167 10228 20172 51009 $
KLGB 221753Z 22004KT 10SM CLR 24/18 A2999 RMK AO2 SLP155 T02390178 10239 20172 51006 $
KLGB 221728Z 2218/2318 17007KT P6SM SKC 
     FM222300 30010KT P6SM SKC 
     FM230500 VRB03KT P6SM SKC 
     FM231000 VRB03KT P6SM OVC008 
     FM231700 17006KT P6SM FEW010
       
KVNY 221751Z VRB03KT 10SM CLR 27/13 A2999 RMK AO2 SLP146 T02670128 10267 20156 50003
KVNY 221728Z 2218/2318 VRB03KT P6SM SKC 
     FM222100 14007KT P6SM SKC 
     FM230200 VRB03KT P6SM SKC
       
KBUR 221753Z 00000KT 10SM CLR 25/13 A2999 RMK AO2 SLP143 T02500128 10256 20156 50005
KBUR 221728Z 2218/2318 VRB03KT P6SM SKC 
     FM222100 17008KT P6SM SKC 
     FM230300 VRB03KT P6SM SKC
       
KBFL 221754Z 25005KT 10SM CLR 25/13 A3000 RMK AO2 SLP152 T02500128 10256 20194 58001
KBFL 221732Z 2218/2318 VRB04KT P6SM SKC 
     FM222100 30009KT P6SM SKC 
     FM230300 VRB04KT P6SM SKC
       
KPMD 221753Z 10004KT 10SM CLR 27/07 A3007 RMK AO2 SLP158 T02670067 10272 20144 50004
KPMD 221728Z 2218/2318 VRB03KT P6SM SKC 
     FM222300 24012KT P6SM SKC 
     FM230600 20007KT P6SM SKC 
     FM231500 VRB03KT P6SM SKC
       
KOXR 221751Z 24006KT 10SM CLR 22/17 A2999 RMK AO2 SLP155 T02170167 10217 20144 51008
KOXR 221728Z 2218/2318 VRB03KT P6SM SKC 
     FM222000 27010KT P6SM SKC 
     FM230400 VRB03KT P6SM SKC 
     FM231100 VRB03KT P6SM OVC007 
     FM231700 27006KT P6SM SCT010
       
KWJF 221756Z 00000KT 10SM CLR 27/06 A3006 RMK AO2 SLP162 T02670061 10267 20117 50002 $
KWJF 221728Z 2218/2318 VRB03KT P6SM SKC 
     FM222200 23015KT P6SM SKC 
     FM230300 25010KT P6SM SKC 
     FM230700 VRB03KT P6SM SKC
       
KCMA 221755Z 22005KT 10SM CLR 26/16 A2999 RMK AO2 SLP161 T02560161 10256 20161 50006
KFAT 221753Z 00000KT 10SM CLR 26/14 A3001 RMK AO2 SLP159 MTNS OBSC FU HZ DSNT N-E-S T02560139 10256 20178 51004
KFAT 221732Z 2218/2318 VRB03KT P6SM SKC 
     FM222300 31006KT P6SM SKC
       
KEED 221756Z AUTO 08004KT 10SM CLR 33/07 A2997 RMK AO2 SLP115 T03330072 10333 20233 50002
KEED 221723Z 2218/2318 VRB05KT P6SM SKC 
     FM222000 19008KT P6SM SKC 
     FM230300 24008KT P6SM SKC 
     FM231000 VRB03KT P6SM SKC
       
KLSV 221758Z AUTO 03005KT 10SM CLR 30/12 A3003 RMK AO2 SLP146 T03000115 10300 20208 50002 $
TAF KLSV 2217/2323 06009KT 9999 SKC QNH2995INS 
     BECMG 2220/2221 16009KT 9999 SKC QNH2990INS 
     BECMG 2307/2308 04009KT 9999 SKC QNH2999INS 
     BECMG 2316/2317 16009KT 9999 SKC QNH2993INS TX33/2221Z TN21/2312Z
       
KLAS 221756Z 24005KT 10SM CLR 29/10 A3002 RMK AO2 SLP140 T02940100 10294 20233 50005
KLAS 221723Z 2218/2318 07005KT P6SM SKC 
     FM222000 12008KT P6SM SKC 
     FM230400 20009KT P6SM SKC
       
KHII 221755Z AUTO 00000KT 10SM CLR 32/09 A2996 RMK AO2
KIFP 221755Z AUTO 00000KT 10SM CLR 32/07 A2997 RMK AO2